St Cloud Regional Airport
KSTC : rendu visible

Aérodrome :











RETROUVEZ-NOUS SUR...

 
LOGIN :

S'inscrire | Disclaimer

   EN    FR    IT 

 









Légende :    VFR   VFR Marginal   IFR   IFR Intensif   IFR Très Intensif
Visi : 
Plafond : 
>= 8 km
>= 3000ft
5 à 8 km
1000 à 3000 ft
1500m à 5 km
500 à 1000 ft
800 à 1500m
200 à 500 ft
< 800m
< 200 ft
Symboles :   Orages  Brouillard  Fortes neiges  Fortes précipitations  Vent > 20 kt






- Altitude de l'aérodrome : 1031 ft
- Code IATA : STC


KSTC - St Cloud Regional

DERNIER METAR :
  • 231653Z 28014G21KT 10SM CLR 03/M03 A2984 RMK AO2 SLP124 T00331033

METARs EXPIRÉS :
  • 231553Z 28012G21KT 10SM CLR 03/M04 A2981 RMK AO2 SLP116 T00281039
  • 231453Z 28013G19KT 10SM CLR 00/M04 A2980 RMK AO2 SLP113 I3001 T00001044 53009

TAF KSTC
Valide du 23 à 12h jusqu'au 24 à 12h UTC


231139Z 2312/2412 23004KT P6SM SKC
FM231600 29017G25KT P6SM SCT015
FM232300 29009KT P6SM SCT250
FM240600 34003KT P6SM SCT250



MET'MAP, la Météo Aéronautique d'un coup d'oeil ! - Copyright ORBIFLY Décembre 2007 - Disclaimer

ORBIFLY MET'MAP TEAM :

Programmation & Développement : Alexandra Zaïnal
Sur une idée originale de : Baudouin d'Aumeries
Assistance à la programmation : Marc-Olivier Méhu
Soutien technique & logistique : Manuel Goepfert

Contact : metmap@orbifly.com




SOURCES & CREDITS :

   NOAA       Earth
Advisory